Time;durP1;ratioP1;P1;durP2;ratioP2;P2;SDS_P1;SDS_P2;PMS_P1;PMS_P2;Temp;Humidity;BMP_temperature;BMP_pressure;BME280_temperature;BME280_humidity;BME280_pressure;Samples;Min_cycle;Max_cycle;Signal;HPM_P1;HPM_P2
2022/05/31 00:02:16;;;;;;;11.13;6.70;;;11.30;99.90;;;;;;5028382;28;20048;-54
2022/05/31 00:04:42;;;;;;;10.63;6.75;;;11.40;99.90;;;;;;5028433;28;20013;-54
2022/05/31 00:07:08;;;;;;;9.05;6.05;;;11.30;99.90;;;;;;5010451;28;20030;-55
2022/05/31 00:09:34;;;;;;;10.75;7.10;;;11.40;99.90;;;;;;5028011;28;20025;-55
2022/05/31 00:12:00;;;;;;;10.38;6.82;;;11.40;99.90;;;;;;5028913;28;20074;-54
2022/05/31 00:14:26;;;;;;;11.13;7.00;;;11.50;99.90;;;;;;5032118;28;20432;-54
2022/05/31 00:16:52;;;;;;;9.48;6.65;;;11.50;99.90;;;;;;5031803;28;20037;-54
2022/05/31 00:19:19;;;;;;;12.02;7.25;;;11.50;99.90;;;;;;5013835;28;20029;-54
2022/05/31 00:21:50;;;;;;;16.08;7.30;;;11.50;99.90;;;;;;5031972;28;20171;-54
2022/05/31 00:24:18;;;;;;;9.68;7.25;;;11.50;99.90;;;;;;5032043;28;20388;-54
2022/05/31 00:26:44;;;;;;;9.32;6.50;;;11.40;99.90;;;;;;5031780;28;20104;-53
2022/05/31 00:29:11;;;;;;;13.38;7.65;;;11.40;99.90;;;;;;5031564;28;20060;-54
2022/05/31 00:31:40;;;;;;;12.88;7.75;;;11.40;99.90;;;;;;5031602;28;20489;-54
2022/05/31 00:34:07;;;;;;;9.55;6.80;;;11.40;99.90;;;;;;5031532;28;20437;-54
2022/05/31 00:36:33;;;;;;;11.20;7.65;;;11.30;99.90;;;;;;5031386;28;20033;-54
2022/05/31 00:38:59;;;;;;;10.20;7.20;;;11.20;99.90;;;;;;5030923;28;20045;-54
2022/05/31 00:41:26;;;;;;;11.48;7.15;;;11.00;99.90;;;;;;5031465;28;20044;-54
2022/05/31 00:43:59;;;;;;;12.17;7.50;;;10.90;99.90;;;;;;5031611;28;20027;-54
2022/05/31 00:46:28;;;;;;;9.90;8.32;;;10.80;99.90;;;;;;5031263;28;20264;-54
2022/05/31 00:48:59;;;;;;;9.70;7.28;;;10.70;99.90;;;;;;5014569;28;20009;-54
2022/05/31 00:51:36;;;;;;;10.18;7.55;;;10.70;99.90;;;;;;5032291;28;20156;-55
2022/05/31 00:54:07;;;;;;;11.37;7.30;;;10.70;99.90;;;;;;5012123;28;20429;-55
2022/05/31 00:56:33;;;;;;;9.10;7.10;;;10.70;99.90;;;;;;5012295;28;20362;-54
2022/05/31 00:59:01;;;;;;;10.68;6.80;;;10.80;99.90;;;;;;5012138;28;20057;-54
2022/05/31 01:01:29;;;;;;;13.75;7.38;;;10.90;99.90;;;;;;5012151;28;20021;-54
2022/05/31 01:03:56;;;;;;;12.70;7.03;;;10.90;99.90;;;;;;5012371;28;20022;-54
2022/05/31 01:06:21;;;;;;;11.27;7.50;;;10.90;99.90;;;;;;5012090;28;20063;-54
2022/05/31 01:08:47;;;;;;;10.50;7.25;;;10.90;99.90;;;;;;5012186;28;20100;-54
2022/05/31 01:11:27;;;;;;;11.70;7.85;;;10.80;99.90;;;;;;5010839;28;20112;-55
2022/05/31 01:13:54;;;;;;;12.52;6.93;;;10.80;99.90;;;;;;5012016;28;20010;-54
2022/05/31 01:16:21;;;;;;;13.10;7.85;;;10.70;99.90;;;;;;5011677;28;20113;-55
2022/05/31 01:18:46;;;;;;;15.07;8.53;;;10.70;99.90;;;;;;5011815;28;20033;-54
2022/05/31 01:21:12;;;;;;;13.00;9.15;;;10.60;99.90;;;;;;5011994;28;20030;-54
2022/05/31 01:23:48;;;;;;;10.73;8.25;;;10.50;99.90;;;;;;5010382;28;20017;-54
2022/05/31 01:26:33;;;;;;;14.85;8.93;;;10.50;99.90;;;;;;5012077;28;20160;-54
2022/05/31 01:29:14;;;;;;;11.23;8.20;;;10.50;99.90;;;;;;4997656;28;20077;-54
2022/05/31 01:31:58;;;;;;;12.13;9.15;;;10.40;99.90;;;;;;5011499;28;20079;-54
2022/05/31 01:34:34;;;;;;;12.40;8.82;;;10.30;99.90;;;;;;4993732;28;20103;-55
2022/05/31 01:37:00;;;;;;;11.98;8.93;;;10.40;99.90;;;;;;5011539;28;20085;-54
2022/05/31 01:39:31;;;;;;;13.18;8.90;;;10.40;99.90;;;;;;5011176;28;20526;-54
2022/05/31 01:42:16;;;;;;;11.23;8.73;;;10.40;99.90;;;;;;5011373;28;20040;-54
2022/05/31 01:45:21;;;;;;;13.20;9.07;;;10.30;99.90;;;;;;5011214;28;20064;-54
2022/05/31 01:47:47;;;;;;;13.23;8.63;;;10.30;99.90;;;;;;5007269;28;20053;-54
2022/05/31 01:50:16;;;;;;;13.40;9.02;;;10.30;99.90;;;;;;5011443;28;20101;-54
2022/05/31 01:52:44;;;;;;;11.50;8.55;;;10.30;99.90;;;;;;5022726;28;20104;-54
2022/05/31 01:55:10;;;;;;;12.43;8.52;;;10.30;99.90;;;;;;5050895;28;20132;-54
2022/05/31 01:57:38;;;;;;;10.30;8.25;;;10.30;99.90;;;;;;5050798;28;20514;-53
2022/05/31 02:00:10;;;;;;;14.25;9.35;;;10.30;99.90;;;;;;5050125;28;20607;-54
2022/05/31 02:02:35;;;;;;;11.60;8.00;;;10.20;99.90;;;;;;5045872;28;20072;-53
2022/05/31 02:05:01;;;;;;;14.77;9.43;;;10.20;99.90;;;;;;5031086;28;20026;-54
2022/05/31 02:07:28;;;;;;;15.65;9.82;;;10.20;99.90;;;;;;5031033;28;20031;-54
2022/05/31 02:09:54;;;;;;;17.98;10.40;;;10.10;99.90;;;;;;5030801;28;20022;-54
2022/05/31 02:12:22;;;;;;;12.35;9.82;;;10.00;99.90;;;;;;5012968;28;20029;-54
2022/05/31 02:14:48;;;;;;;13.15;8.77;;;9.90;99.90;;;;;;5031014;28;20029;-53
2022/05/31 02:17:16;;;;;;;12.13;7.95;;;10.00;99.90;;;;;;5013147;28;20408;-54
2022/05/31 02:19:42;;;;;;;11.27;8.57;;;9.90;99.90;;;;;;5030883;28;20021;-54
2022/05/31 02:22:12;;;;;;;12.43;9.23;;;9.90;99.90;;;;;;5030632;28;20534;-54
2022/05/31 02:24:38;;;;;;;14.10;9.10;;;9.90;99.90;;;;;;5030388;28;20084;-54
2022/05/31 02:27:05;;;;;;;12.60;9.45;;;9.80;99.90;;;;;;5030677;28;20036;-54
2022/05/31 02:29:33;;;;;;;14.57;9.18;;;9.70;99.90;;;;;;5030517;28;20029;-55
2022/05/31 02:32:02;;;;;;;13.15;8.15;;;9.70;99.90;;;;;;5030484;28;20499;-55
2022/05/31 02:34:31;;;;;;;13.70;8.98;;;9.70;99.90;;;;;;5030086;28;20083;-55
2022/05/31 02:36:57;;;;;;;13.82;10.10;;;9.60;99.90;;;;;;5030540;28;20295;-54
2022/05/31 02:39:23;;;;;;;11.95;8.65;;;9.50;99.90;;;;;;5030330;28;20042;-54
2022/05/31 02:41:49;;;;;;;14.15;9.80;;;9.50;99.90;;;;;;5030732;28;20107;-54
2022/05/31 02:44:15;;;;;;;14.77;10.35;;;9.50;99.90;;;;;;5030156;28;20500;-55
2022/05/31 02:46:41;;;;;;;16.02;11.02;;;9.50;99.90;;;;;;5030065;28;20036;-54
2022/05/31 02:49:07;;;;;;;13.93;10.50;;;9.40;99.90;;;;;;5030388;28;20025;-54
2022/05/31 02:51:42;;;;;;;13.75;10.65;;;9.40;99.90;;;;;;5030221;28;20034;-54
2022/05/31 02:54:09;;;;;;;13.95;10.65;;;9.40;99.90;;;;;;5046021;28;20028;-54
2022/05/31 02:56:35;;;;;;;17.08;10.35;;;9.40;99.90;;;;;;5050028;28;20040;-57
2022/05/31 02:59:01;;;;;;;15.15;9.35;;;9.40;99.90;;;;;;5049963;28;20025;-54
2022/05/31 03:01:33;;;;;;;15.57;9.73;;;9.50;99.90;;;;;;5049712;28;20024;-55
2022/05/31 03:03:58;;;;;;;14.27;10.32;;;9.40;99.90;;;;;;5049760;28;20021;-55
2022/05/31 03:06:25;;;;;;;14.52;9.32;;;9.40;99.90;;;;;;5049925;28;20028;-54
2022/05/31 03:08:51;;;;;;;14.63;9.23;;;9.40;99.90;;;;;;5049847;28;20098;-54
2022/05/31 03:11:26;;;;;;;15.32;10.20;;;9.40;99.90;;;;;;5049727;28;20059;-54
2022/05/31 03:13:57;;;;;;;12.68;9.45;;;9.30;99.90;;;;;;5049659;28;20082;-54
2022/05/31 03:16:23;;;;;;;13.50;10.32;;;9.20;99.90;;;;;;5049760;28;20087;-54
2022/05/31 03:19:02;;;;;;;14.07;9.50;;;9.20;99.90;;;;;;5049276;28;20028;-54
2022/05/31 03:21:34;;;;;;;13.05;9.63;;;9.30;99.90;;;;;;5049922;28;20279;-54
2022/05/31 03:24:06;;;;;;;16.45;10.55;;;9.20;99.90;;;;;;5049670;28;20024;-54
2022/05/31 03:26:34;;;;;;;14.18;9.27;;;9.10;99.90;;;;;;5049699;28;20033;-54
2022/05/31 03:29:00;;;;;;;;;;;9.20;99.90;;;;;;5049904;28;20381;-54
2022/05/31 03:31:26;;;;;;;14.85;10.18;;;9.20;99.90;;;;;;5049784;28;20082;-55
2022/05/31 03:33:52;;;;;;;13.15;10.10;;;9.20;99.90;;;;;;5050034;28;20108;-54
2022/05/31 03:36:17;;;;;;;16.92;9.95;;;9.30;99.90;;;;;;5048999;28;20033;-54
2022/05/31 03:38:43;;;;;;;14.80;9.82;;;9.20;99.90;;;;;;5049455;28;20512;-54
2022/05/31 03:41:09;;;;;;;12.82;9.68;;;9.20;99.90;;;;;;5049596;28;20437;-54
2022/05/31 03:43:36;;;;;;;12.95;9.63;;;9.20;99.90;;;;;;5049309;28;20028;-55
2022/05/31 03:46:02;;;;;;;13.02;9.48;;;9.30;99.90;;;;;;5049827;28;20391;-55
2022/05/31 03:48:28;;;;;;;13.25;10.18;;;9.30;99.90;;;;;;5052226;28;20032;-55
2022/05/31 03:51:03;;;;;;;12.57;9.13;;;9.40;99.90;;;;;;5053638;28;20029;-55
2022/05/31 03:53:29;;;;;;;13.90;10.70;;;9.40;99.90;;;;;;5053259;28;20082;-54
2022/05/31 03:55:55;;;;;;;13.68;10.20;;;9.40;99.90;;;;;;5052950;28;20029;-54
2022/05/31 03:58:21;;;;;;;14.73;9.93;;;9.50;99.90;;;;;;5053371;28;20025;-54
2022/05/31 04:00:47;;;;;;;14.10;10.98;;;9.50;99.90;;;;;;5053680;28;20451;-54
2022/05/31 04:03:13;;;;;;;15.73;11.77;;;9.50;99.90;;;;;;5053152;28;20121;-54
2022/05/31 04:05:39;;;;;;;16.40;10.90;;;9.50;99.90;;;;;;5053554;28;20025;-54
2022/05/31 04:08:08;;;;;;;13.73;10.73;;;9.60;99.90;;;;;;5052946;28;20282;-54
2022/05/31 04:10:35;;;;;;;14.57;10.60;;;9.60;99.90;;;;;;5053231;28;20465;-54
2022/05/31 04:13:01;;;;;;;;;;;9.60;99.90;;;;;;5053434;28;20033;-54
2022/05/31 04:15:28;;;;;;;18.38;10.57;;;9.60;99.90;;;;;;5053288;28;19912;-54
2022/05/31 04:17:54;;;;;;;16.33;12.05;;;9.70;99.90;;;;;;5052801;28;20045;-54
2022/05/31 04:20:20;;;;;;;13.45;10.57;;;9.80;99.90;;;;;;5034960;28;20075;-54
2022/05/31 04:22:46;;;;;;;16.75;12.05;;;9.80;99.90;;;;;;5053204;28;20021;-54
2022/05/31 04:25:11;;;;;;;14.57;11.32;;;9.90;99.90;;;;;;5052590;28;20032;-54
2022/05/31 04:27:37;;;;;;;15.18;11.15;;;10.00;99.90;;;;;;5052755;28;20491;-54
2022/05/31 04:30:04;;;;;;;19.40;12.23;;;10.00;99.90;;;;;;5052615;28;20083;-54
2022/05/31 04:32:29;;;;;;;22.00;13.13;;;10.00;99.90;;;;;;5052836;28;20052;-54
2022/05/31 04:34:55;;;;;;;16.63;11.95;;;10.10;99.90;;;;;;5052677;28;20024;-54
2022/05/31 04:37:21;;;;;;;16.52;12.77;;;10.10;99.90;;;;;;5052848;28;20040;-54
2022/05/31 04:39:47;;;;;;;19.88;14.40;;;10.10;99.90;;;;;;5052257;28;20061;-53
2022/05/31 04:42:12;;;;;;;20.80;14.02;;;10.20;99.90;;;;;;5052727;28;20032;-55
2022/05/31 04:44:38;;;;;;;23.80;15.90;;;10.30;99.90;;;;;;5052627;28;20467;-55
2022/05/31 04:47:05;;;;;;;21.50;14.95;;;10.30;99.90;;;;;;5052565;28;20532;-54
2022/05/31 04:49:31;;;;;;;17.88;12.70;;;10.30;99.90;;;;;;5034392;28;20035;-55
2022/05/31 04:51:57;;;;;;;17.50;12.85;;;10.30;99.90;;;;;;5052502;28;20107;-54
2022/05/31 04:54:24;;;;;;;18.67;12.85;;;10.40;99.90;;;;;;5052103;28;20537;-54
2022/05/31 04:56:52;;;;;;;18.65;11.95;;;10.40;99.90;;;;;;5052172;28;20128;-55
2022/05/31 04:59:19;;;;;;;17.33;12.02;;;10.50;99.90;;;;;;5051495;28;20071;-55
2022/05/31 05:01:45;;;;;;;15.40;11.53;;;10.60;99.90;;;;;;5052556;28;20060;-55
2022/05/31 05:04:11;;;;;;;15.57;12.00;;;10.70;99.90;;;;;;5051977;28;20057;-54
2022/05/31 05:06:37;;;;;;;16.53;10.67;;;10.80;99.90;;;;;;5052051;28;20476;-55
2022/05/31 05:09:04;;;;;;;15.80;11.85;;;10.80;99.90;;;;;;5052279;28;20070;-55
2022/05/31 05:11:32;;;;;;;14.88;12.15;;;10.90;99.90;;;;;;5052217;28;20029;-55
2022/05/31 05:13:58;;;;;;;17.52;12.02;;;11.00;99.90;;;;;;5052043;28;20518;-55
2022/05/31 05:16:24;;;;;;;19.90;13.90;;;11.00;99.90;;;;;;5051871;28;20028;-55
2022/05/31 05:18:50;;;;;;;16.00;12.52;;;11.00;99.90;;;;;;5051578;28;20380;-55
2022/05/31 05:21:16;;;;;;;18.80;11.85;;;11.10;99.90;;;;;;5034022;28;20497;-55
2022/05/31 05:23:42;;;;;;;16.60;11.63;;;11.20;99.90;;;;;;5051628;28;20033;-55
2022/05/31 05:26:09;;;;;;;15.13;11.17;;;11.20;99.90;;;;;;5033898;28;20033;-54
2022/05/31 05:31:33;;;;;;;16.40;12.00;;;11.40;99.90;;;;;;5051937;28;20181;-55
2022/05/31 05:34:00;;;;;;;18.10;12.02;;;11.50;99.90;;;;;;5051215;28;20025;-55
2022/05/31 05:36:26;;;;;;;19.13;12.32;;;11.60;99.90;;;;;;5051157;28;20535;-55
2022/05/31 05:38:52;;;;;;;19.38;12.88;;;11.70;99.90;;;;;;5051344;28;20041;-55
2022/05/31 05:41:20;;;;;;;22.88;13.60;;;11.80;99.90;;;;;;5051271;28;20487;-55
2022/05/31 05:43:46;;;;;;;16.83;14.00;;;11.90;99.90;;;;;;5033373;28;20511;-55
2022/05/31 05:46:23;;;;;;;22.08;14.02;;;12.10;99.90;;;;;;5051797;28;20071;-55
2022/05/31 05:48:49;;;;;;;19.75;12.63;;;12.20;99.90;;;;;;5051167;28;20048;-55
2022/05/31 05:51:23;;;;;;;18.73;13.48;;;12.20;99.90;;;;;;5051460;28;20025;-55
2022/05/31 05:53:50;;;;;;;19.30;13.30;;;12.30;99.90;;;;;;5051134;28;20029;-55
2022/05/31 05:56:17;;;;;;;20.38;14.32;;;12.40;99.90;;;;;;5051146;28;20119;-55
2022/05/31 05:58:43;;;;;;;18.83;13.85;;;12.60;99.90;;;;;;5051076;28;20035;-55
2022/05/31 06:01:32;;;;;;;18.95;12.68;;;12.70;99.90;;;;;;5050826;28;20021;-54
2022/05/31 06:04:07;;;;;;;19.42;14.82;;;12.70;99.90;;;;;;5050089;28;20078;-55
2022/05/31 06:06:35;;;;;;;19.55;14.93;;;12.90;99.90;;;;;;5051451;28;20050;-55
2022/05/31 06:09:08;;;;;;;27.15;16.27;;;13.00;99.90;;;;;;5050636;28;20025;-55
2022/05/31 06:11:36;;;;;;;18.20;10.77;;;13.10;99.90;;;;;;5050293;28;20064;-55
2022/05/31 06:14:29;;;;;;;13.55;9.77;;;13.20;99.90;;;;;;5050693;28;20029;-55
2022/05/31 06:16:59;;;;;;;13.85;9.00;;;13.20;99.90;;;;;;5040147;28;20452;-55
2022/05/31 06:19:33;;;;;;;15.30;8.73;;;13.30;99.90;;;;;;5050952;28;20028;-55
2022/05/31 06:22:00;;;;;;;13.00;7.85;;;13.30;99.90;;;;;;5050708;28;20021;-55
2022/05/31 06:24:30;;;;;;;14.53;7.20;;;13.40;99.90;;;;;;5050772;28;20032;-54
2022/05/31 06:26:56;;;;;;;11.18;6.20;;;13.60;99.90;;;;;;5050444;28;20489;-55
2022/05/31 06:29:22;;;;;;;10.27;6.10;;;13.60;99.90;;;;;;5050685;28;20135;-56
2022/05/31 06:31:47;;;;;;;10.43;6.28;;;13.80;99.90;;;;;;5050800;28;20036;-55
2022/05/31 06:34:13;;;;;;;8.75;4.85;;;14.00;99.90;;;;;;5050524;28;20500;-55
2022/05/31 06:36:42;;;;;;;8.15;5.30;;;14.00;99.90;;;;;;5050171;28;20041;-54
2022/05/31 06:39:08;;;;;;;9.35;5.40;;;14.00;99.90;;;;;;5032568;28;20087;-55
2022/05/31 06:41:35;;;;;;;7.30;4.25;;;14.10;99.90;;;;;;5050275;28;20033;-55
2022/05/31 06:44:01;;;;;;;9.63;4.82;;;14.10;99.90;;;;;;5050236;28;20021;-55
2022/05/31 06:46:27;;;;;;;6.65;4.18;;;14.10;99.90;;;;;;5050361;28;20036;-55
2022/05/31 06:48:53;;;;;;;9.18;4.55;;;14.30;99.90;;;;;;5049863;28;20029;-55
2022/05/31 06:56:52;;;;;;;9.07;4.20;;;14.40;99.90;;;;;;5050029;28;20537;-55
2022/05/31 06:59:18;;;;;;;7.45;4.68;;;14.50;99.90;;;;;;5049606;28;20036;-55
2022/05/31 07:01:45;;;;;;;9.05;4.07;;;14.50;99.90;;;;;;5032122;28;20029;-55
2022/05/31 07:04:11;;;;;;;9.43;4.10;;;14.70;99.90;;;;;;5049619;28;20074;-55
2022/05/31 07:06:36;;;;;;;10.25;4.47;;;14.60;99.90;;;;;;5049990;28;20044;-55
2022/05/31 07:09:02;;;;;;;7.78;4.47;;;14.80;99.90;;;;;;5049640;28;20136;-55
2022/05/31 07:11:28;;;;;;;7.38;4.13;;;15.00;99.90;;;;;;5049935;28;20036;-55
2022/05/31 07:13:54;;;;;;;8.68;4.38;;;15.10;99.90;;;;;;5049652;28;20025;-55
2022/05/31 07:16:19;;;;;;;8.90;4.95;;;15.20;99.90;;;;;;5049940;28;20036;-55
2022/05/31 07:18:45;;;;;;;7.80;4.95;;;15.40;99.90;;;;;;5049358;28;20025;-55
2022/05/31 07:21:11;;;;;;;10.85;5.38;;;15.50;99.90;;;;;;5049838;28;20059;-55
2022/05/31 07:23:40;;;;;;;9.38;5.15;;;15.50;99.90;;;;;;5049562;28;20102;-55
2022/05/31 07:26:07;;;;;;;10.60;5.50;;;15.50;99.90;;;;;;5049913;28;20539;-55
2022/05/31 07:28:33;;;;;;;9.67;5.43;;;15.50;99.90;;;;;;5049239;28;20043;-55
2022/05/31 07:31:00;;;;;;;9.40;5.55;;;15.50;99.90;;;;;;5049601;28;20279;-55
2022/05/31 07:33:25;;;;;;;11.80;7.43;;;15.70;99.90;;;;;;5049615;28;20432;-55
2022/05/31 07:35:51;;;;;;;10.85;5.85;;;15.70;99.90;;;;;;5049422;28;20051;-55
2022/05/31 07:38:19;;;;;;;8.30;4.93;;;15.60;99.90;;;;;;5049189;28;20044;-55
2022/05/31 07:40:45;;;;;;;8.38;5.07;;;15.70;99.90;;;;;;5018002;28;20061;-55
2022/05/31 07:43:11;;;;;;;11.90;6.63;;;15.70;99.90;;;;;;5017805;28;20453;-55
2022/05/31 07:45:38;;;;;;;10.10;6.75;;;15.80;99.90;;;;;;5015276;28;20049;-55
2022/05/31 07:48:04;;;;;;;11.17;7.23;;;15.80;99.90;;;;;;5022158;28;20029;-54
2022/05/31 07:50:31;;;;;;;12.02;7.63;;;15.90;99.90;;;;;;5020796;28;20276;-55
2022/05/31 07:52:59;;;;;;;11.48;6.95;;;15.90;99.90;;;;;;5016380;28;20038;-55
2022/05/31 07:55:28;;;;;;;11.73;7.22;;;16.10;99.90;;;;;;5018483;28;20030;-54
2022/05/31 08:00:40;;;;;;;13.52;7.85;;;16.10;99.90;;;;;;5018478;28;20068;-55
2022/05/31 08:03:06;;;;;;;14.07;7.55;;;16.20;99.90;;;;;;5017720;28;20052;-55
2022/05/31 08:05:32;;;;;;;10.00;6.72;;;16.50;99.90;;;;;;5019464;28;20084;-55
2022/05/31 08:07:58;;;;;;;12.50;7.00;;;16.80;99.90;;;;;;5017146;28;20117;-54
2022/05/31 08:10:24;;;;;;;11.25;7.80;;;16.80;99.90;;;;;;5017291;28;20160;-55
2022/05/31 08:12:50;;;;;;;12.18;8.10;;;16.80;99.90;;;;;;5019262;28;20025;-55
2022/05/31 08:15:16;;;;;;;14.68;7.95;;;16.90;99.90;;;;;;5018004;28;20030;-55
2022/05/31 08:17:43;;;;;;;14.63;8.98;;;16.90;99.90;;;;;;5017320;28;20025;-55
2022/05/31 08:20:09;;;;;;;16.23;6.82;;;16.90;99.90;;;;;;5018492;28;20464;-55
2022/05/31 08:22:35;;;;;;;11.35;7.38;;;17.00;99.90;;;;;;5026997;28;20038;-55
2022/05/31 08:25:02;;;;;;;13.32;8.82;;;17.20;99.90;;;;;;5020987;28;20088;-57
2022/05/31 08:27:28;;;;;;;12.93;6.63;;;17.30;99.90;;;;;;5019796;28;20485;-55
2022/05/31 08:29:53;;;;;;;9.50;6.38;;;17.40;99.90;;;;;;5017768;28;20053;-55
2022/05/31 08:32:20;;;;;;;10.80;5.20;;;17.50;99.90;;;;;;5018328;28;20121;-55
2022/05/31 08:34:47;;;;;;;10.88;6.78;;;17.80;99.90;;;;;;5020386;28;20026;-55
2022/05/31 08:37:13;;;;;;;13.02;6.22;;;17.70;99.90;;;;;;5020054;28;20833;-55
2022/05/31 08:39:39;;;;;;;8.77;5.88;;;17.80;99.90;;;;;;5022260;28;20045;-55
2022/05/31 08:42:08;;;;;;;8.07;4.60;;;18.00;99.90;;;;;;5021666;28;20392;-55
2022/05/31 08:44:44;;;;;;;11.98;5.57;;;17.80;99.90;;;;;;5020969;28;20026;-55
2022/05/31 08:47:15;;;;;;;12.02;6.15;;;18.00;99.90;;;;;;5021703;28;20120;-54
2022/05/31 08:53:02;;;;;;;9.25;5.38;;;18.20;99.90;;;;;;5021747;28;20118;-62
2022/05/31 08:58:49;;;;;;;6.97;5.10;;;18.60;99.90;;;;;;5022432;28;20032;-61
2022/05/31 09:01:18;;;;;;;9.05;3.78;;;18.60;99.90;;;;;;5022201;28;20022;-62
2022/05/31 09:03:54;;;;;;;5.53;2.72;;;19.10;99.90;;;;;;5020879;28;20029;-59
2022/05/31 09:06:30;;;;;;;3.67;1.83;;;19.30;99.90;;;;;;5020290;28;20053;-56
2022/05/31 09:09:17;;;;;;;2.90;1.60;;;19.70;97.40;;;;;;5019701;28;20022;-58
2022/05/31 09:12:05;;;;;;;10.50;2.25;;;19.50;91.50;;;;;;5021246;28;20026;-56
2022/05/31 09:14:44;;;;;;;9.68;2.92;;;19.80;95.00;;;;;;5022413;28;20076;-57
2022/05/31 09:17:35;;;;;;;4.55;1.80;;;19.90;94.10;;;;;;5024148;28;20068;-56
2022/05/31 09:20:15;;;;;;;3.30;2.10;;;19.70;84.70;;;;;;5031701;28;20084;-57
2022/05/31 09:22:45;;;;;;;4.32;2.63;;;19.90;89.80;;;;;;5023649;28;20025;-56
2022/05/31 09:25:12;;;;;;;2.20;1.33;;;19.70;87.70;;;;;;5019335;28;20026;-57
2022/05/31 09:27:44;;;;;;;1.55;0.80;;;20.00;76.40;;;;;;5018378;28;20065;-57
2022/05/31 09:30:36;;;;;;;2.42;1.05;;;20.30;82.90;;;;;;5031036;28;20025;-57
2022/05/31 09:33:32;;;;;;;4.57;1.67;;;20.50;71.30;;;;;;5051189;28;20035;-57
2022/05/31 09:36:21;;;;;;;4.05;1.60;;;20.50;76.60;;;;;;5043018;28;20045;-56
2022/05/31 09:39:17;;;;;;;5.07;1.50;;;20.90;75.10;;;;;;5019547;28;20574;-56
2022/05/31 09:41:48;;;;;;;4.38;1.50;;;20.70;74.70;;;;;;5031003;28;20116;-57
2022/05/31 09:44:26;;;;;;;4.63;1.88;;;20.70;65.90;;;;;;5029742;28;20025;-57
2022/05/31 09:47:10;;;;;;;1.85;0.90;;;20.80;78.40;;;;;;5018973;28;20101;-57
2022/05/31 09:49:45;;;;;;;4.70;1.73;;;21.00;69.20;;;;;;5020521;28;20109;-57
2022/05/31 09:52:37;;;;;;;4.75;1.98;;;21.10;69.80;;;;;;5026669;28;20125;-57
2022/05/31 09:58:07;;;;;;;4.55;2.00;;;21.30;74.90;;;;;;5030937;28;20072;-57
2022/05/31 10:00:34;;;;;;;2.78;1.45;;;21.40;74.60;;;;;;5030907;28;20416;-57
2022/05/31 10:03:09;;;;;;;5.50;1.67;;;21.50;65.60;;;;;;5031088;28;20400;-56
2022/05/31 10:05:36;;;;;;;3.15;1.88;;;21.20;61.00;;;;;;5030996;28;20025;-57
2022/05/31 10:08:03;;;;;;;3.20;1.73;;;21.40;71.20;;;;;;5030955;28;20523;-57
2022/05/31 10:10:34;;;;;;;3.97;1.77;;;21.70;74.00;;;;;;5030915;28;20072;-57
2022/05/31 10:13:04;;;;;;;2.22;1.23;;;21.80;69.60;;;;;;5029338;28;20412;-58
2022/05/31 10:15:43;;;;;;;3.22;1.33;;;22.10;67.90;;;;;;5030727;28;20041;-57
2022/05/31 10:18:25;;;;;;;2.67;1.30;;;21.70;60.40;;;;;;5030805;28;20036;-57
2022/05/31 10:20:57;;;;;;;4.35;1.60;;;21.20;62.50;;;;;;5030684;28;20469;-56
2022/05/31 10:23:29;;;;;;;2.85;1.27;;;21.00;57.80;;;;;;5030544;28;20033;-56
2022/05/31 10:25:58;;;;;;;2.28;1.20;;;21.30;65.70;;;;;;5030795;28;20029;-56
2022/05/31 10:28:29;;;;;;;3.72;1.40;;;21.70;68.00;;;;;;5030759;28;20048;-55
2022/05/31 10:31:13;;;;;;;6.47;1.38;;;21.80;60.90;;;;;;5040736;28;20107;-56
2022/05/31 10:33:40;;;;;;;2.80;1.35;;;21.60;57.20;;;;;;5045127;28;20024;-54
2022/05/31 10:36:08;;;;;;;7.23;1.93;;;22.00;54.30;;;;;;5030564;28;20409;-56
2022/05/31 10:38:34;;;;;;;5.68;1.67;;;22.30;58.80;;;;;;5030348;28;20037;-55
2022/05/31 10:41:03;;;;;;;3.88;2.13;;;21.90;57.30;;;;;;5030751;28;20033;-55
2022/05/31 10:43:40;;;;;;;6.03;1.70;;;21.70;56.50;;;;;;5030305;28;20084;-55
2022/05/31 10:46:26;;;;;;;5.25;1.83;;;21.50;56.90;;;;;;5030814;28;20079;-55
2022/05/31 10:48:58;;;;;;;4.25;1.88;;;21.10;57.80;;;;;;5022198;28;20030;-55
2022/05/31 10:51:41;;;;;;;3.92;1.70;;;21.50;65.10;;;;;;5018989;28;20045;-55
2022/05/31 10:54:13;;;;;;;1.73;1.17;;;22.00;54.70;;;;;;5020041;28;20037;-55
2022/05/31 10:57:07;;;;;;;4.03;1.80;;;22.20;63.60;;;;;;5018337;28;20040;-56
2022/05/31 10:59:43;;;;;;;3.08;1.50;;;22.60;66.80;;;;;;5019975;28;20029;-57
2022/05/31 11:02:22;;;;;;;4.57;2.33;;;22.60;55.10;;;;;;5001532;28;20022;-57
2022/05/31 11:05:08;;;;;;;5.78;2.22;;;22.60;57.30;;;;;;5019371;28;20021;-58
2022/05/31 11:11:39;;;;;;;3.05;1.27;;;23.10;54.80;;;;;;4970791;28;20414;-59
2022/05/31 11:14:21;;;;;;;3.35;1.35;;;23.20;51.60;;;;;;5009842;28;20025;-55
2022/05/31 11:17:00;;;;;;;2.70;1.33;;;23.20;53.50;;;;;;5012695;28;20583;-57
2022/05/31 11:19:37;;;;;;;5.53;1.48;;;22.80;49.70;;;;;;5009994;28;20025;-54
2022/05/31 11:22:05;;;;;;;2.70;1.05;;;22.80;55.20;;;;;;5009712;28;20057;-55
2022/05/31 11:24:49;;;;;;;2.47;1.58;;;22.60;57.40;;;;;;5010127;28;20375;-54
2022/05/31 11:27:26;;;;;;;6.00;1.33;;;22.90;59.20;;;;;;5009711;28;20025;-56
2022/05/31 11:30:04;;;;;;;2.45;1.25;;;22.80;54.20;;;;;;5008866;28;20107;-56
2022/05/31 11:32:48;;;;;;;2.03;1.10;;;23.20;55.60;;;;;;5042620;28;20044;-57
2022/05/31 11:38:22;;;;;;;3.17;1.42;;;23.00;56.10;;;;;;5041000;22;20062;-91
2022/05/31 11:41:13;;;;;;;4.63;1.65;;;23.50;55.60;;;;;;4967991;28;20074;-91
2022/05/31 11:43:52;;;;;;;2.83;1.35;;;23.90;58.00;;;;;;4966230;28;20038;-93
2022/05/31 11:46:28;;;;;;;4.45;1.30;;;24.20;57.20;;;;;;4968831;28;20081;-89
2022/05/31 11:49:07;;;;;;;5.30;1.42;;;24.20;54.50;;;;;;4965080;28;20031;-90
2022/05/31 11:52:11;;;;;;;3.42;1.20;;;24.30;54.20;;;;;;4962030;28;20022;-92
2022/05/31 11:55:26;;;;;;;2.83;1.70;;;24.30;55.70;;;;;;4967051;28;20033;-92
2022/05/31 11:58:20;;;;;;;5.03;1.48;;;24.20;52.70;;;;;;4968069;28;20102;-90
2022/05/31 12:01:10;;;;;;;5.95;1.42;;;24.70;57.10;;;;;;4972995;28;20030;-89
2022/05/31 12:03:59;;;;;;;4.97;2.08;;;24.70;54.70;;;;;;4967756;28;20137;-88
2022/05/31 12:06:43;;;;;;;2.88;1.35;;;24.90;58.70;;;;;;4978895;28;20094;-90
2022/05/31 12:09:20;;;;;;;5.30;1.60;;;25.00;55.00;;;;;;4976365;28;20068;-89
2022/05/31 12:12:04;;;;;;;3.42;1.60;;;25.20;53.60;;;;;;4977580;28;20022;-94
2022/05/31 12:14:32;;;;;;;3.95;2.08;;;25.20;56.80;;;;;;5018747;23;20050;-57
2022/05/31 12:16:58;;;;;;;4.47;2.03;;;24.50;52.70;;;;;;4963633;28;20045;-56
2022/05/31 12:19:42;;;;;;;3.13;1.30;;;24.80;55.30;;;;;;4964653;28;20027;-56
2022/05/31 12:22:21;;;;;;;4.88;2.00;;;25.10;56.30;;;;;;4964631;28;20224;-57
2022/05/31 12:25:06;;;;;;;3.65;1.52;;;25.60;55.70;;;;;;4964477;28;20106;-54
2022/05/31 12:27:51;;;;;;;3.47;1.52;;;25.40;54.80;;;;;;4964140;28;20055;-59
2022/05/31 12:30:30;;;;;;;2.72;1.40;;;25.20;57.20;;;;;;4962151;28;20034;-56
2022/05/31 12:32:56;;;;;;;3.15;1.52;;;25.60;55.50;;;;;;4964387;28;20378;-57
2022/05/31 12:35:31;;;;;;;5.28;2.28;;;26.00;56.80;;;;;;4962246;28;20475;-58
2022/05/31 12:38:03;;;;;;;4.97;1.73;;;25.80;53.00;;;;;;4965295;28;20035;-58
2022/05/31 12:40:34;;;;;;;3.88;1.80;;;24.30;52.20;;;;;;4963785;28;20483;-55
2022/05/31 12:43:32;;;;;;;3.40;1.40;;;24.10;52.40;;;;;;4964184;28;20038;-57
2022/05/31 12:45:58;;;;;;;8.52;1.98;;;24.30;54.10;;;;;;4954851;28;20495;-59
2022/05/31 12:48:28;;;;;;;9.10;1.65;;;24.10;53.60;;;;;;4965013;28;20101;-60
2022/05/31 12:50:56;;;;;;;6.43;1.90;;;24.40;61.40;;;;;;4970781;28;20050;-57
2022/05/31 12:53:37;;;;;;;3.35;1.73;;;23.70;54.30;;;;;;4973504;28;20027;-57
2022/05/31 12:56:07;;;;;;;4.68;1.58;;;23.60;56.40;;;;;;4973651;28;20584;-55
2022/05/31 12:58:44;;;;;;;3.88;1.33;;;23.70;59.70;;;;;;4973025;28;20073;-56
2022/05/31 13:01:10;;;;;;;;;;;23.70;57.80;;;;;;4974008;28;20030;-56
2022/05/31 13:03:42;;;;;;;3.08;1.70;;;23.90;62.30;;;;;;4973236;28;19910;-57
2022/05/31 13:06:11;;;;;;;4.65;1.90;;;24.10;57.30;;;;;;4973252;28;20035;-56
2022/05/31 13:08:48;;;;;;;3.53;1.70;;;24.30;58.30;;;;;;4963815;28;20046;-55
2022/05/31 13:20:05;;;;;;;4.78;1.85;;;24.90;56.10;;;;;;4963549;28;20041;-56
2022/05/31 13:22:38;;;;;;;2.90;1.58;;;24.70;55.70;;;;;;4961470;28;20098;-57
2022/05/31 13:25:13;;;;;;;2.67;1.67;;;24.60;54.20;;;;;;4963090;28;20066;-56
2022/05/31 13:27:38;;;;;;;5.30;2.30;;;24.20;56.10;;;;;;4957108;28;20031;-56
2022/05/31 13:30:14;;;;;;;4.15;1.70;;;24.40;53.60;;;;;;4960679;28;20358;-53
2022/05/31 13:32:41;;;;;;;6.22;1.77;;;24.20;54.50;;;;;;4964134;28;20426;-52
2022/05/31 13:35:15;;;;;;;9.95;2.75;;;24.30;58.40;;;;;;4963225;28;20454;-57
2022/05/31 13:37:59;;;;;;;3.90;1.65;;;24.30;55.40;;;;;;4971481;28;20038;-54